Battenville, New York
Current Conditions -  °F | °C
As of 10:53 AM on Thursday 29 Jan 2015 (Local Time) from KGFL Reporting Station
Clear Clear  
Wind Chill:   Ceiling: Unl
Heat Index: 13°   Visibility: 10mi
Dew Point:   Wind: 6mph
Humidity: 67%   Direction: 150°SSE
Pressure: 30.26"   Gusts: NA
Location:  43.09°N, 73.5018°W
Report Text: KGFL 291553Z AUTO 15005KT 10SM CLR M11/M16 A3026 RMK AO2 SLP262 T11061156
Loading
Personal Weather Stations






























Interactive Weather Map New forecast layout! Learn more

10-Day Weather Forecast

Advertisements
Track Severe Weather on mobile